Arthur, Indiana
Current Conditions -  °F | °C
As of 12:15 PM on Friday 28 Nov 2014 (Local Time) from KHNB Reporting Station
Clear Clear  
Wind Chill:   Ceiling: Unl
Heat Index:   Visibility: 10mi
Dew Point: -3°   Wind: 8mph
Humidity: 65%   Direction: 170°S
Pressure: 30.27"   Gusts: NA
Location:  38.3488°N, 87.2217°W
Report Text: KHNB 281815Z AUTO 17007KT 10SM CLR 03/M03 A3027 RMK AO1
Loading
Personal Weather Stations






























Interactive Weather Map New forecast layout! Learn more

10-Day Weather Forecast

Advertisements
Track Severe Weather on mobile